sensor_id;sensor_type;location;lat;lon;timestamp;temperature;humidity
35457;DHT22;21575;51.538;-0.084;2022-12-29T00:01:33;10.20;99.90
35457;DHT22;21575;51.538;-0.084;2022-12-29T00:03:59;10.10;99.90
35457;DHT22;21575;51.538;-0.084;2022-12-29T00:06:25;10.20;99.90
35457;DHT22;21575;51.538;-0.084;2022-12-29T00:08:51;10.20;99.90
35457;DHT22;21575;51.538;-0.084;2022-12-29T00:11:20;10.20;99.90
35457;DHT22;21575;51.538;-0.084;2022-12-29T00:13:46;10.20;99.90
35457;DHT22;21575;51.538;-0.084;2022-12-29T00:16:30;10.20;99.90
35457;DHT22;21575;51.538;-0.084;2022-12-29T00:18:57;10.20;99.90
35457;DHT22;21575;51.538;-0.084;2022-12-29T00:21:24;10.30;99.90
35457;DHT22;21575;51.538;-0.084;2022-12-29T00:24:19;10.30;99.90
35457;DHT22;21575;51.538;-0.084;2022-12-29T00:29:38;10.30;99.90
35457;DHT22;21575;51.538;-0.084;2022-12-29T00:32:22;10.30;99.90
35457;DHT22;21575;51.538;-0.084;2022-12-29T00:35:09;10.30;99.90
35457;DHT22;21575;51.538;-0.084;2022-12-29T00:37:40;10.20;99.90
35457;DHT22;21575;51.538;-0.084;2022-12-29T00:40:25;10.30;99.90
35457;DHT22;21575;51.538;-0.084;2022-12-29T00:43:09;10.30;99.90
35457;DHT22;21575;51.538;-0.084;2022-12-29T00:45:53;10.30;99.90
35457;DHT22;21575;51.538;-0.084;2022-12-29T00:48:18;10.30;99.90
35457;DHT22;21575;51.538;-0.084;2022-12-29T00:51:04;10.30;99.90
35457;DHT22;21575;51.538;-0.084;2022-12-29T00:53:30;10.30;99.90
35457;DHT22;21575;51.538;-0.084;2022-12-29T00:55:56;10.30;99.90
35457;DHT22;21575;51.538;-0.084;2022-12-29T00:58:21;10.30;99.90
35457;DHT22;21575;51.538;-0.084;2022-12-29T01:00:47;10.40;99.90
35457;DHT22;21575;51.538;-0.084;2022-12-29T01:03:12;10.40;99.90
35457;DHT22;21575;51.538;-0.084;2022-12-29T01:05:38;10.40;99.90
35457;DHT22;21575;51.538;-0.084;2022-12-29T01:08:04;10.30;99.90
35457;DHT22;21575;51.538;-0.084;2022-12-29T01:10:30;10.40;99.90
35457;DHT22;21575;51.538;-0.084;2022-12-29T01:12:55;10.40;99.90
35457;DHT22;21575;51.538;-0.084;2022-12-29T01:15:21;10.40;99.90
35457;DHT22;21575;51.538;-0.084;2022-12-29T01:17:47;10.30;99.90
35457;DHT22;21575;51.538;-0.084;2022-12-29T01:20:13;10.30;99.90
35457;DHT22;21575;51.538;-0.084;2022-12-29T01:22:38;10.30;99.90
35457;DHT22;21575;51.538;-0.084;2022-12-29T01:25:05;10.20;99.90
35457;DHT22;21575;51.538;-0.084;2022-12-29T01:27:31;10.20;99.90
35457;DHT22;21575;51.538;-0.084;2022-12-29T01:29:57;10.10;99.90
35457;DHT22;21575;51.538;-0.084;2022-12-29T01:32:23;10.10;99.90
35457;DHT22;21575;51.538;-0.084;2022-12-29T01:34:48;10.10;99.90
35457;DHT22;21575;51.538;-0.084;2022-12-29T01:37:14;10.10;99.90
35457;DHT22;21575;51.538;-0.084;2022-12-29T01:39:40;10.10;99.90
35457;DHT22;21575;51.538;-0.084;2022-12-29T01:42:08;10.10;99.90
35457;DHT22;21575;51.538;-0.084;2022-12-29T01:45:00;10.10;99.90
35457;DHT22;21575;51.538;-0.084;2022-12-29T01:50:50;10.00;99.90
35457;DHT22;21575;51.538;-0.084;2022-12-29T01:53:00;10.00;99.90
35457;DHT22;21575;51.538;-0.084;2022-12-29T01:55:34;9.90;99.90
35457;DHT22;21575;51.538;-0.084;2022-12-29T01:58:04;9.90;99.90
35457;DHT22;21575;51.538;-0.084;2022-12-29T02:00:31;9.80;99.90
35457;DHT22;21575;51.538;-0.084;2022-12-29T02:02:56;9.80;99.90
35457;DHT22;21575;51.538;-0.084;2022-12-29T02:05:46;9.80;99.90
35457;DHT22;21575;51.538;-0.084;2022-12-29T02:08:13;9.80;99.90
35457;DHT22;21575;51.538;-0.084;2022-12-29T02:10:40;9.80;99.90
35457;DHT22;21575;51.538;-0.084;2022-12-29T02:13:06;9.80;99.90
35457;DHT22;21575;51.538;-0.084;2022-12-29T02:31:51;9.70;99.90
35457;DHT22;21575;51.538;-0.084;2022-12-29T02:40:29;9.70;99.90
35457;DHT22;21575;51.538;-0.084;2022-12-29T02:43:21;9.70;99.90
35457;DHT22;21575;51.538;-0.084;2022-12-29T02:45:58;9.70;99.90
35457;DHT22;21575;51.538;-0.084;2022-12-29T02:48:32;9.70;99.90
35457;DHT22;21575;51.538;-0.084;2022-12-29T02:51:07;9.70;99.90
35457;DHT22;21575;51.538;-0.084;2022-12-29T02:53:36;9.70;99.90
35457;DHT22;21575;51.538;-0.084;2022-12-29T02:56:21;9.70;99.90
35457;DHT22;21575;51.538;-0.084;2022-12-29T02:58:46;9.70;99.90
35457;DHT22;21575;51.538;-0.084;2022-12-29T03:06:30;9.70;99.90
35457;DHT22;21575;51.538;-0.084;2022-12-29T03:12:25;9.80;99.90
35457;DHT22;21575;51.538;-0.084;2022-12-29T03:17:39;9.80;99.90
35457;DHT22;21575;51.538;-0.084;2022-12-29T03:20:11;9.90;99.90
35457;DHT22;21575;51.538;-0.084;2022-12-29T03:22:43;10.00;99.90
35457;DHT22;21575;51.538;-0.084;2022-12-29T03:25:22;10.00;99.90
35457;DHT22;21575;51.538;-0.084;2022-12-29T03:28:10;10.10;99.90
35457;DHT22;21575;51.538;-0.084;2022-12-29T03:30:39;10.10;99.90
35457;DHT22;21575;51.538;-0.084;2022-12-29T03:33:09;10.20;99.90
35457;DHT22;21575;51.538;-0.084;2022-12-29T03:35:38;10.20;99.90
35457;DHT22;21575;51.538;-0.084;2022-12-29T03:38:35;10.30;99.90
35457;DHT22;21575;51.538;-0.084;2022-12-29T03:41:07;10.30;99.90
35457;DHT22;21575;51.538;-0.084;2022-12-29T03:43:33;10.40;99.90
35457;DHT22;21575;51.538;-0.084;2022-12-29T03:45:59;10.40;99.90
35457;DHT22;21575;51.538;-0.084;2022-12-29T03:48:25;10.40;99.90
35457;DHT22;21575;51.538;-0.084;2022-12-29T03:50:51;10.40;99.90
35457;DHT22;21575;51.538;-0.084;2022-12-29T03:53:16;10.40;99.90
35457;DHT22;21575;51.538;-0.084;2022-12-29T03:55:42;10.40;99.90
35457;DHT22;21575;51.538;-0.084;2022-12-29T03:58:08;10.50;99.90
35457;DHT22;21575;51.538;-0.084;2022-12-29T04:00:33;10.50;99.90
35457;DHT22;21575;51.538;-0.084;2022-12-29T04:02:59;10.50;99.90
35457;DHT22;21575;51.538;-0.084;2022-12-29T04:05:25;10.50;99.90
35457;DHT22;21575;51.538;-0.084;2022-12-29T04:07:50;10.50;99.90
35457;DHT22;21575;51.538;-0.084;2022-12-29T04:10:16;10.50;99.90
35457;DHT22;21575;51.538;-0.084;2022-12-29T04:12:42;10.50;99.90
35457;DHT22;21575;51.538;-0.084;2022-12-29T04:15:08;10.50;99.90
35457;DHT22;21575;51.538;-0.084;2022-12-29T04:17:34;10.50;99.90
35457;DHT22;21575;51.538;-0.084;2022-12-29T04:20:00;10.50;99.90
35457;DHT22;21575;51.538;-0.084;2022-12-29T04:23:05;10.60;99.90
35457;DHT22;21575;51.538;-0.084;2022-12-29T04:25:32;10.60;99.90
35457;DHT22;21575;51.538;-0.084;2022-12-29T04:27:57;10.60;99.90
35457;DHT22;21575;51.538;-0.084;2022-12-29T04:30:23;10.60;99.90
35457;DHT22;21575;51.538;-0.084;2022-12-29T04:32:49;10.60;99.90
35457;DHT22;21575;51.538;-0.084;2022-12-29T04:35:15;10.60;99.90
35457;DHT22;21575;51.538;-0.084;2022-12-29T04:37:40;10.60;99.90
35457;DHT22;21575;51.538;-0.084;2022-12-29T04:40:06;10.60;99.90
35457;DHT22;21575;51.538;-0.084;2022-12-29T04:42:32;10.60;99.90
35457;DHT22;21575;51.538;-0.084;2022-12-29T04:44:58;10.60;99.90
35457;DHT22;21575;51.538;-0.084;2022-12-29T04:47:24;10.60;99.90
35457;DHT22;21575;51.538;-0.084;2022-12-29T04:49:49;10.60;99.90
35457;DHT22;21575;51.538;-0.084;2022-12-29T04:52:15;10.50;99.90
35457;DHT22;21575;51.538;-0.084;2022-12-29T04:54:40;10.50;99.90
35457;DHT22;21575;51.538;-0.084;2022-12-29T04:57:06;10.50;99.90
35457;DHT22;21575;51.538;-0.084;2022-12-29T04:59:32;10.40;99.90
35457;DHT22;21575;51.538;-0.084;2022-12-29T05:01:57;10.50;99.90
35457;DHT22;21575;51.538;-0.084;2022-12-29T05:04:23;10.50;99.90
35457;DHT22;21575;51.538;-0.084;2022-12-29T05:06:49;10.40;99.90
35457;DHT22;21575;51.538;-0.084;2022-12-29T05:09:14;10.50;99.90
35457;DHT22;21575;51.538;-0.084;2022-12-29T05:11:40;10.50;99.90
35457;DHT22;21575;51.538;-0.084;2022-12-29T05:14:06;10.50;99.90
35457;DHT22;21575;51.538;-0.084;2022-12-29T05:16:31;10.50;99.90
35457;DHT22;21575;51.538;-0.084;2022-12-29T05:18:57;10.50;99.90
35457;DHT22;21575;51.538;-0.084;2022-12-29T05:21:22;10.50;99.90
35457;DHT22;21575;51.538;-0.084;2022-12-29T05:23:48;10.50;99.90
35457;DHT22;21575;51.538;-0.084;2022-12-29T05:26:14;10.60;99.90
35457;DHT22;21575;51.538;-0.084;2022-12-29T05:28:39;10.50;99.90
35457;DHT22;21575;51.538;-0.084;2022-12-29T05:31:05;10.50;99.90
35457;DHT22;21575;51.538;-0.084;2022-12-29T05:33:31;10.60;99.90
35457;DHT22;21575;51.538;-0.084;2022-12-29T05:35:56;10.60;99.90
35457;DHT22;21575;51.538;-0.084;2022-12-29T05:38:22;10.60;99.90
35457;DHT22;21575;51.538;-0.084;2022-12-29T05:40:48;10.50;99.90
35457;DHT22;21575;51.538;-0.084;2022-12-29T05:43:14;10.50;99.90
35457;DHT22;21575;51.538;-0.084;2022-12-29T05:45:39;10.50;99.90
35457;DHT22;21575;51.538;-0.084;2022-12-29T05:48:05;10.50;99.90
35457;DHT22;21575;51.538;-0.084;2022-12-29T05:50:30;10.50;99.90
35457;DHT22;21575;51.538;-0.084;2022-12-29T05:52:56;10.50;99.90
35457;DHT22;21575;51.538;-0.084;2022-12-29T05:55:22;10.50;99.90
35457;DHT22;21575;51.538;-0.084;2022-12-29T05:57:47;10.40;99.90
35457;DHT22;21575;51.538;-0.084;2022-12-29T06:00:13;10.40;99.90
35457;DHT22;21575;51.538;-0.084;2022-12-29T06:02:39;10.40;99.90
35457;DHT22;21575;51.538;-0.084;2022-12-29T06:05:05;10.40;99.90
35457;DHT22;21575;51.538;-0.084;2022-12-29T06:07:31;10.30;99.90
35457;DHT22;21575;51.538;-0.084;2022-12-29T06:09:56;10.20;99.90
35457;DHT22;21575;51.538;-0.084;2022-12-29T06:12:22;10.10;99.90
35457;DHT22;21575;51.538;-0.084;2022-12-29T06:14:48;10.10;99.90
35457;DHT22;21575;51.538;-0.084;2022-12-29T06:17:13;10.10;99.90
35457;DHT22;21575;51.538;-0.084;2022-12-29T06:19:39;10.00;99.90
35457;DHT22;21575;51.538;-0.084;2022-12-29T06:22:05;10.00;99.90
35457;DHT22;21575;51.538;-0.084;2022-12-29T06:24:30;9.90;99.90
35457;DHT22;21575;51.538;-0.084;2022-12-29T06:26:56;9.80;99.90
35457;DHT22;21575;51.538;-0.084;2022-12-29T06:29:21;9.80;99.90
35457;DHT22;21575;51.538;-0.084;2022-12-29T06:31:47;9.80;99.90
35457;DHT22;21575;51.538;-0.084;2022-12-29T06:34:14;9.70;99.90
35457;DHT22;21575;51.538;-0.084;2022-12-29T06:36:40;9.70;99.90
35457;DHT22;21575;51.538;-0.084;2022-12-29T06:39:06;9.60;99.90
35457;DHT22;21575;51.538;-0.084;2022-12-29T06:41:31;9.70;99.90
35457;DHT22;21575;51.538;-0.084;2022-12-29T06:43:57;9.60;99.90
35457;DHT22;21575;51.538;-0.084;2022-12-29T06:46:23;9.60;99.90
35457;DHT22;21575;51.538;-0.084;2022-12-29T06:48:48;9.60;99.90
35457;DHT22;21575;51.538;-0.084;2022-12-29T06:51:14;9.50;99.90
35457;DHT22;21575;51.538;-0.084;2022-12-29T06:53:40;9.50;99.90
35457;DHT22;21575;51.538;-0.084;2022-12-29T06:56:05;9.40;99.90
35457;DHT22;21575;51.538;-0.084;2022-12-29T06:58:31;9.40;99.90
35457;DHT22;21575;51.538;-0.084;2022-12-29T07:00:57;9.40;99.90
35457;DHT22;21575;51.538;-0.084;2022-12-29T07:03:23;9.30;99.90
35457;DHT22;21575;51.538;-0.084;2022-12-29T07:05:49;9.30;99.90
35457;DHT22;21575;51.538;-0.084;2022-12-29T07:08:14;9.30;99.90
35457;DHT22;21575;51.538;-0.084;2022-12-29T07:10:40;9.30;99.90
35457;DHT22;21575;51.538;-0.084;2022-12-29T07:13:06;9.30;99.90
35457;DHT22;21575;51.538;-0.084;2022-12-29T07:15:37;9.30;99.90
35457;DHT22;21575;51.538;-0.084;2022-12-29T07:18:03;9.20;99.90
35457;DHT22;21575;51.538;-0.084;2022-12-29T07:20:29;9.20;99.90
35457;DHT22;21575;51.538;-0.084;2022-12-29T07:22:55;9.20;99.90
35457;DHT22;21575;51.538;-0.084;2022-12-29T07:25:21;9.20;99.90
35457;DHT22;21575;51.538;-0.084;2022-12-29T07:27:47;9.20;99.90
35457;DHT22;21575;51.538;-0.084;2022-12-29T07:30:14;9.10;99.90
35457;DHT22;21575;51.538;-0.084;2022-12-29T07:32:40;9.10;99.90
35457;DHT22;21575;51.538;-0.084;2022-12-29T07:35:05;9.10;99.90
35457;DHT22;21575;51.538;-0.084;2022-12-29T07:37:31;9.00;99.90
35457;DHT22;21575;51.538;-0.084;2022-12-29T07:39:57;9.00;99.90
35457;DHT22;21575;51.538;-0.084;2022-12-29T07:42:23;9.00;99.90
35457;DHT22;21575;51.538;-0.084;2022-12-29T07:44:48;9.00;99.90
35457;DHT22;21575;51.538;-0.084;2022-12-29T07:47:14;9.00;99.90
35457;DHT22;21575;51.538;-0.084;2022-12-29T07:49:39;8.90;99.90
35457;DHT22;21575;51.538;-0.084;2022-12-29T07:52:05;8.90;99.90
35457;DHT22;21575;51.538;-0.084;2022-12-29T07:54:31;8.90;99.90
35457;DHT22;21575;51.538;-0.084;2022-12-29T07:56:56;8.90;99.90
35457;DHT22;21575;51.538;-0.084;2022-12-29T07:59:25;8.90;99.90
35457;DHT22;21575;51.538;-0.084;2022-12-29T08:01:51;8.90;99.90
35457;DHT22;21575;51.538;-0.084;2022-12-29T08:04:17;8.90;99.90
35457;DHT22;21575;51.538;-0.084;2022-12-29T08:06:42;8.90;99.90
35457;DHT22;21575;51.538;-0.084;2022-12-29T08:09:08;8.90;99.90
35457;DHT22;21575;51.538;-0.084;2022-12-29T08:11:34;8.80;99.90
35457;DHT22;21575;51.538;-0.084;2022-12-29T08:13:59;8.80;99.90
35457;DHT22;21575;51.538;-0.084;2022-12-29T08:16:25;8.80;99.90
35457;DHT22;21575;51.538;-0.084;2022-12-29T08:18:51;8.80;99.90
35457;DHT22;21575;51.538;-0.084;2022-12-29T08:21:16;8.80;99.90
35457;DHT22;21575;51.538;-0.084;2022-12-29T08:23:42;8.80;99.90
35457;DHT22;21575;51.538;-0.084;2022-12-29T08:26:07;8.80;99.90
35457;DHT22;21575;51.538;-0.084;2022-12-29T08:28:33;8.80;99.90
35457;DHT22;21575;51.538;-0.084;2022-12-29T08:31:00;8.80;99.90
35457;DHT22;21575;51.538;-0.084;2022-12-29T08:33:26;8.80;99.90
35457;DHT22;21575;51.538;-0.084;2022-12-29T08:35:52;8.80;99.90
35457;DHT22;21575;51.538;-0.084;2022-12-29T08:38:18;8.80;99.90
35457;DHT22;21575;51.538;-0.084;2022-12-29T08:40:44;8.90;99.90
35457;DHT22;21575;51.538;-0.084;2022-12-29T08:43:09;8.80;99.90
35457;DHT22;21575;51.538;-0.084;2022-12-29T08:45:35;8.90;99.90
35457;DHT22;21575;51.538;-0.084;2022-12-29T08:48:01;8.90;99.90
35457;DHT22;21575;51.538;-0.084;2022-12-29T08:50:27;9.00;99.90
35457;DHT22;21575;51.538;-0.084;2022-12-29T08:52:52;9.00;99.90
35457;DHT22;21575;51.538;-0.084;2022-12-29T08:55:18;9.00;99.90
35457;DHT22;21575;51.538;-0.084;2022-12-29T08:57:43;9.10;99.90
35457;DHT22;21575;51.538;-0.084;2022-12-29T09:00:10;9.10;99.90
35457;DHT22;21575;51.538;-0.084;2022-12-29T09:02:36;9.10;99.90
35457;DHT22;21575;51.538;-0.084;2022-12-29T09:05:02;9.10;99.90
35457;DHT22;21575;51.538;-0.084;2022-12-29T09:07:27;9.10;99.90
35457;DHT22;21575;51.538;-0.084;2022-12-29T09:09:53;9.10;99.90
35457;DHT22;21575;51.538;-0.084;2022-12-29T09:12:19;9.20;99.90
35457;DHT22;21575;51.538;-0.084;2022-12-29T09:14:46;9.20;99.90
35457;DHT22;21575;51.538;-0.084;2022-12-29T09:17:12;9.30;99.90
35457;DHT22;21575;51.538;-0.084;2022-12-29T09:19:56;9.40;99.90
35457;DHT22;21575;51.538;-0.084;2022-12-29T09:22:21;9.40;99.90
35457;DHT22;21575;51.538;-0.084;2022-12-29T09:24:47;9.40;99.90
35457;DHT22;21575;51.538;-0.084;2022-12-29T09:27:13;9.50;99.90
35457;DHT22;21575;51.538;-0.084;2022-12-29T09:29:38;9.50;99.90
35457;DHT22;21575;51.538;-0.084;2022-12-29T09:32:04;9.50;99.90
35457;DHT22;21575;51.538;-0.084;2022-12-29T09:34:30;9.50;99.90
35457;DHT22;21575;51.538;-0.084;2022-12-29T09:36:55;9.40;99.90
35457;DHT22;21575;51.538;-0.084;2022-12-29T09:39:22;9.40;99.90
35457;DHT22;21575;51.538;-0.084;2022-12-29T09:42:14;9.40;99.90
35457;DHT22;21575;51.538;-0.084;2022-12-29T09:44:56;9.50;99.90
35457;DHT22;21575;51.538;-0.084;2022-12-29T09:47:27;9.50;99.90
35457;DHT22;21575;51.538;-0.084;2022-12-29T09:50:01;9.60;99.90
35457;DHT22;21575;51.538;-0.084;2022-12-29T09:52:43;9.60;99.90
35457;DHT22;21575;51.538;-0.084;2022-12-29T09:55:15;9.60;99.90
35457;DHT22;21575;51.538;-0.084;2022-12-29T09:57:57;9.60;99.90
35457;DHT22;21575;51.538;-0.084;2022-12-29T10:00:35;9.70;99.90
35457;DHT22;21575;51.538;-0.084;2022-12-29T10:03:16;9.70;99.90
35457;DHT22;21575;51.538;-0.084;2022-12-29T10:08:39;9.70;99.90
35457;DHT22;21575;51.538;-0.084;2022-12-29T10:17:22;9.80;99.90
35457;DHT22;21575;51.538;-0.084;2022-12-29T10:25:38;9.90;99.90
35457;DHT22;21575;51.538;-0.084;2022-12-29T10:28:20;9.90;99.90
35457;DHT22;21575;51.538;-0.084;2022-12-29T10:30:48;9.90;99.90
35457;DHT22;21575;51.538;-0.084;2022-12-29T10:33:18;9.90;99.90
35457;DHT22;21575;51.538;-0.084;2022-12-29T10:35:46;9.90;99.90
35457;DHT22;21575;51.538;-0.084;2022-12-29T10:40:58;9.90;99.90
35457;DHT22;21575;51.538;-0.084;2022-12-29T10:43:34;9.90;99.90
35457;DHT22;21575;51.538;-0.084;2022-12-29T10:46:09;9.90;99.90
35457;DHT22;21575;51.538;-0.084;2022-12-29T10:48:36;9.90;99.90
35457;DHT22;21575;51.538;-0.084;2022-12-29T10:51:05;9.90;99.90
35457;DHT22;21575;51.538;-0.084;2022-12-29T10:53:53;9.80;99.90
35457;DHT22;21575;51.538;-0.084;2022-12-29T10:58:47;9.80;99.90
35457;DHT22;21575;51.538;-0.084;2022-12-29T11:01:14;9.80;99.90
35457;DHT22;21575;51.538;-0.084;2022-12-29T11:03:54;9.90;99.90
35457;DHT22;21575;51.538;-0.084;2022-12-29T11:06:26;10.00;99.90
35457;DHT22;21575;51.538;-0.084;2022-12-29T11:09:14;9.90;99.90
35457;DHT22;21575;51.538;-0.084;2022-12-29T11:11:41;10.00;99.90
35457;DHT22;21575;51.538;-0.084;2022-12-29T11:16:38;9.90;99.90
35457;DHT22;21575;51.538;-0.084;2022-12-29T11:19:04;9.90;99.90
35457;DHT22;21575;51.538;-0.084;2022-12-29T11:21:34;10.00;99.90
35457;DHT22;21575;51.538;-0.084;2022-12-29T11:24:17;10.00;99.90
35457;DHT22;21575;51.538;-0.084;2022-12-29T11:26:44;10.10;99.90
35457;DHT22;21575;51.538;-0.084;2022-12-29T11:31:46;10.10;99.90
35457;DHT22;21575;51.538;-0.084;2022-12-29T11:34:26;10.10;99.90
35457;DHT22;21575;51.538;-0.084;2022-12-29T11:36:57;10.10;99.90
35457;DHT22;21575;51.538;-0.084;2022-12-29T11:39:50;10.20;99.90
35457;DHT22;21575;51.538;-0.084;2022-12-29T11:42:16;10.20;99.90
35457;DHT22;21575;51.538;-0.084;2022-12-29T11:44:49;10.20;99.90
35457;DHT22;21575;51.538;-0.084;2022-12-29T11:47:26;10.30;99.90
35457;DHT22;21575;51.538;-0.084;2022-12-29T11:49:56;10.30;99.90
35457;DHT22;21575;51.538;-0.084;2022-12-29T11:52:29;10.30;99.90
35457;DHT22;21575;51.538;-0.084;2022-12-29T11:55:00;10.30;99.90
35457;DHT22;21575;51.538;-0.084;2022-12-29T11:57:27;10.20;99.90
35457;DHT22;21575;51.538;-0.084;2022-12-29T11:59:57;10.30;99.90
35457;DHT22;21575;51.538;-0.084;2022-12-29T12:02:44;10.30;99.90
35457;DHT22;21575;51.538;-0.084;2022-12-29T12:05:45;10.30;99.90
35457;DHT22;21575;51.538;-0.084;2022-12-29T12:08:31;10.30;99.90
35457;DHT22;21575;51.538;-0.084;2022-12-29T12:11:15;10.30;99.90
35457;DHT22;21575;51.538;-0.084;2022-12-29T12:14:02;10.30;99.90
35457;DHT22;21575;51.538;-0.084;2022-12-29T12:16:40;10.30;99.90
35457;DHT22;21575;51.538;-0.084;2022-12-29T12:19:20;10.30;99.90
35457;DHT22;21575;51.538;-0.084;2022-12-29T12:21:54;10.30;99.90
35457;DHT22;21575;51.538;-0.084;2022-12-29T12:24:52;10.30;99.90
35457;DHT22;21575;51.538;-0.084;2022-12-29T12:28:00;10.30;99.90
35457;DHT22;21575;51.538;-0.084;2022-12-29T12:30:29;10.20;99.90
35457;DHT22;21575;51.538;-0.084;2022-12-29T12:33:11;10.20;99.90
35457;DHT22;21575;51.538;-0.084;2022-12-29T12:56:56;10.30;99.90
35457;DHT22;21575;51.538;-0.084;2022-12-29T13:19:17;10.30;99.90
35457;DHT22;21575;51.538;-0.084;2022-12-29T13:22:02;10.30;99.90
35457;DHT22;21575;51.538;-0.084;2022-12-29T13:35:02;10.20;99.90
35457;DHT22;21575;51.538;-0.084;2022-12-29T13:37:36;10.10;99.90
35457;DHT22;21575;51.538;-0.084;2022-12-29T13:40:16;10.10;99.90
35457;DHT22;21575;51.538;-0.084;2022-12-29T13:42:43;10.10;99.90
35457;DHT22;21575;51.538;-0.084;2022-12-29T13:45:28;10.10;99.90
35457;DHT22;21575;51.538;-0.084;2022-12-29T13:48:19;10.20;99.90
35457;DHT22;21575;51.538;-0.084;2022-12-29T13:50:52;10.20;99.90
35457;DHT22;21575;51.538;-0.084;2022-12-29T14:05:32;10.30;99.90
35457;DHT22;21575;51.538;-0.084;2022-12-29T14:08:00;10.20;99.90
35457;DHT22;21575;51.538;-0.084;2022-12-29T14:10:47;10.10;99.90
35457;DHT22;21575;51.538;-0.084;2022-12-29T14:13:24;10.00;99.90
35457;DHT22;21575;51.538;-0.084;2022-12-29T14:15:56;10.00;99.90
35457;DHT22;21575;51.538;-0.084;2022-12-29T14:18:27;10.00;99.90
35457;DHT22;21575;51.538;-0.084;2022-12-29T14:23:38;10.00;99.90
35457;DHT22;21575;51.538;-0.084;2022-12-29T14:26:12;9.90;99.90
35457;DHT22;21575;51.538;-0.084;2022-12-29T14:28:46;9.90;99.90
35457;DHT22;21575;51.538;-0.084;2022-12-29T14:37:01;9.80;99.90
35457;DHT22;21575;51.538;-0.084;2022-12-29T14:39:41;9.80;99.90
35457;DHT22;21575;51.538;-0.084;2022-12-29T14:47:26;9.70;99.90
35457;DHT22;21575;51.538;-0.084;2022-12-29T14:49:53;9.70;99.90
35457;DHT22;21575;51.538;-0.084;2022-12-29T14:52:22;9.60;99.90
35457;DHT22;21575;51.538;-0.084;2022-12-29T14:54:55;9.60;99.90
35457;DHT22;21575;51.538;-0.084;2022-12-29T14:57:40;9.60;99.90
35457;DHT22;21575;51.538;-0.084;2022-12-29T15:00:18;9.60;99.90
35457;DHT22;21575;51.538;-0.084;2022-12-29T15:03:32;9.50;99.90
35457;DHT22;21575;51.538;-0.084;2022-12-29T15:06:05;9.50;99.90
35457;DHT22;21575;51.538;-0.084;2022-12-29T15:08:47;9.50;99.90
35457;DHT22;21575;51.538;-0.084;2022-12-29T15:11:15;9.50;99.90
35457;DHT22;21575;51.538;-0.084;2022-12-29T15:13:43;9.50;99.90
35457;DHT22;21575;51.538;-0.084;2022-12-29T15:18:52;9.50;99.90
35457;DHT22;21575;51.538;-0.084;2022-12-29T15:21:27;9.50;99.90
35457;DHT22;21575;51.538;-0.084;2022-12-29T15:23:54;9.40;99.90
35457;DHT22;21575;51.538;-0.084;2022-12-29T15:26:20;9.50;99.90
35457;DHT22;21575;51.538;-0.084;2022-12-29T15:28:51;9.40;99.90
35457;DHT22;21575;51.538;-0.084;2022-12-29T15:31:23;9.40;99.90
35457;DHT22;21575;51.538;-0.084;2022-12-29T15:33:52;9.40;99.90
35457;DHT22;21575;51.538;-0.084;2022-12-29T15:36:24;9.40;99.90
35457;DHT22;21575;51.538;-0.084;2022-12-29T15:38:51;9.30;99.90
35457;DHT22;21575;51.538;-0.084;2022-12-29T15:41:36;9.40;99.90
35457;DHT22;21575;51.538;-0.084;2022-12-29T15:46:51;9.30;99.90
35457;DHT22;21575;51.538;-0.084;2022-12-29T15:49:17;9.30;99.90
35457;DHT22;21575;51.538;-0.084;2022-12-29T15:51:44;9.30;99.90
35457;DHT22;21575;51.538;-0.084;2022-12-29T15:54:18;9.20;99.90
35457;DHT22;21575;51.538;-0.084;2022-12-29T15:56:45;9.20;99.90
35457;DHT22;21575;51.538;-0.084;2022-12-29T16:01:48;9.20;99.90
35457;DHT22;21575;51.538;-0.084;2022-12-29T16:04:14;9.20;99.90
35457;DHT22;21575;51.538;-0.084;2022-12-29T16:07:04;9.20;99.90
35457;DHT22;21575;51.538;-0.084;2022-12-29T16:09:42;9.10;99.90
35457;DHT22;21575;51.538;-0.084;2022-12-29T16:12:20;9.10;99.90
35457;DHT22;21575;51.538;-0.084;2022-12-29T16:15:07;9.10;99.90
35457;DHT22;21575;51.538;-0.084;2022-12-29T16:17:49;9.10;99.90
35457;DHT22;21575;51.538;-0.084;2022-12-29T16:20:31;9.10;99.90
35457;DHT22;21575;51.538;-0.084;2022-12-29T16:22:59;9.10;99.90
35457;DHT22;21575;51.538;-0.084;2022-12-29T16:25:29;9.00;99.90
35457;DHT22;21575;51.538;-0.084;2022-12-29T16:27:57;9.00;99.90
35457;DHT22;21575;51.538;-0.084;2022-12-29T16:30:32;9.00;99.90
35457;DHT22;21575;51.538;-0.084;2022-12-29T16:33:03;9.00;99.90
35457;DHT22;21575;51.538;-0.084;2022-12-29T16:38:15;9.00;99.90
35457;DHT22;21575;51.538;-0.084;2022-12-29T16:40:54;9.00;99.90
35457;DHT22;21575;51.538;-0.084;2022-12-29T16:43:25;9.00;99.90
35457;DHT22;21575;51.538;-0.084;2022-12-29T16:48:20;9.00;99.90
35457;DHT22;21575;51.538;-0.084;2022-12-29T16:50:47;9.00;99.90
35457;DHT22;21575;51.538;-0.084;2022-12-29T16:55:49;9.10;99.90
35457;DHT22;21575;51.538;-0.084;2022-12-29T16:58:24;9.00;99.90
35457;DHT22;21575;51.538;-0.084;2022-12-29T17:01:03;9.10;99.90
35457;DHT22;21575;51.538;-0.084;2022-12-29T17:03:42;9.10;99.90
35457;DHT22;21575;51.538;-0.084;2022-12-29T17:06:15;9.10;99.90
35457;DHT22;21575;51.538;-0.084;2022-12-29T17:08:42;9.00;99.90
35457;DHT22;21575;51.538;-0.084;2022-12-29T17:11:21;9.00;99.90
35457;DHT22;21575;51.538;-0.084;2022-12-29T17:16:42;8.90;99.90
35457;DHT22;21575;51.538;-0.084;2022-12-29T17:19:14;8.90;99.90
35457;DHT22;21575;51.538;-0.084;2022-12-29T17:21:41;8.80;99.90
35457;DHT22;21575;51.538;-0.084;2022-12-29T17:24:15;8.80;99.90
35457;DHT22;21575;51.538;-0.084;2022-12-29T17:26:42;8.70;99.90
35457;DHT22;21575;51.538;-0.084;2022-12-29T17:29:17;8.70;99.90
35457;DHT22;21575;51.538;-0.084;2022-12-29T17:31:43;8.70;99.90
35457;DHT22;21575;51.538;-0.084;2022-12-29T17:34:11;8.60;99.90
35457;DHT22;21575;51.538;-0.084;2022-12-29T17:36:37;8.60;99.90
35457;DHT22;21575;51.538;-0.084;2022-12-29T17:39:05;8.60;99.90
35457;DHT22;21575;51.538;-0.084;2022-12-29T17:41:33;8.50;99.90
35457;DHT22;21575;51.538;-0.084;2022-12-29T17:44:00;8.50;99.90
35457;DHT22;21575;51.538;-0.084;2022-12-29T17:46:26;8.50;99.90
35457;DHT22;21575;51.538;-0.084;2022-12-29T17:48:52;8.40;99.90
35457;DHT22;21575;51.538;-0.084;2022-12-29T17:51:19;8.40;99.90
35457;DHT22;21575;51.538;-0.084;2022-12-29T17:53:45;8.30;99.90
35457;DHT22;21575;51.538;-0.084;2022-12-29T17:56:11;8.30;99.90
35457;DHT22;21575;51.538;-0.084;2022-12-29T17:58:36;8.30;99.90
35457;DHT22;21575;51.538;-0.084;2022-12-29T18:01:03;8.30;99.90
35457;DHT22;21575;51.538;-0.084;2022-12-29T18:03:36;8.30;99.90
35457;DHT22;21575;51.538;-0.084;2022-12-29T18:06:03;8.30;99.90
35457;DHT22;21575;51.538;-0.084;2022-12-29T18:08:31;8.30;99.90
35457;DHT22;21575;51.538;-0.084;2022-12-29T18:10:57;8.20;99.90
35457;DHT22;21575;51.538;-0.084;2022-12-29T18:13:25;8.20;99.90
35457;DHT22;21575;51.538;-0.084;2022-12-29T18:15:52;8.20;99.90
35457;DHT22;21575;51.538;-0.084;2022-12-29T18:18:20;8.20;99.90
35457;DHT22;21575;51.538;-0.084;2022-12-29T18:20:48;8.20;99.90
35457;DHT22;21575;51.538;-0.084;2022-12-29T18:23:21;8.10;99.90
35457;DHT22;21575;51.538;-0.084;2022-12-29T18:25:51;8.10;99.90